Terminal Aerodrome Forecast
Issued by NWS Burlington, VT

Home | Current Version | Previous Version | Text Only | Print | Product List | Glossary On
Versions: 1 2 3 4 5 6 7 8 9 10 11 12 13 14
000
FTUS41 KBTV 252320
TAFBTV
TAF
KBTV 252320Z 2600/2624 01005KT P6SM OVC050
     FM260600 33004KT P6SM BKN030 OVC040
     FM261600 31004KT P6SM VCSH BKN035 OVC060=

USA.gov is the U.S. government's official web portal to all federal, state and local government web resources and services.